Andover, New York
Current Conditions -  °F | °C
As of 3:23 AM on Monday 26 Jan 2015 (Local Time) from KELZ Reporting Station
Light Snow Light Snow  
Wind Chill: -5°   Ceiling: 3000
Heat Index: 10°   Visibility: 5mi
Dew Point:   Wind: 12mph
Humidity: 76%   Direction: 110°ESE
Pressure: 29.84"   Gusts: NA
Location:  42.16°N, 77.8°W
Report Text: KELZ 260823Z AUTO 11010KT 5SM -SN OVC030 M12/M16 A2984 RMK AO2 P0000 T11221156
Loading
Personal Weather Stations






























Interactive Weather Map New forecast layout! Learn more

10-Day Weather Forecast

Advertisements
Track Severe Weather on mobile